Time;durP1;ratioP1;P1;durP2;ratioP2;P2;SDS_P1;SDS_P2;PMS_P1;PMS_P2;Temp;Humidity;BMP_temperature;BMP_pressure;BME280_temperature;BME280_humidity;BME280_pressure;Samples;Min_cycle;Max_cycle;Signal;HPM_P1;HPM_P2
2021/12/08 00:01:59;;;;;;;;;;;22.80;20.20;;;;;;5162146;27;20041;-52
2021/12/08 00:04:25;;;;;;;;;;;22.80;20.10;;;;;;5161878;27;19975;-49
2021/12/08 00:06:51;;;;;;;;;;;22.80;20.20;;;;;;5167864;27;19930;-48
2021/12/08 00:09:46;;;;;;;;;;;22.80;20.10;;;;;;5162523;27;20301;-49
2021/12/08 00:14:56;;;;;;;;;;;22.80;20.10;;;;;;5167512;27;19938;-49
2021/12/08 00:17:22;;;;;;;;;;;22.80;20.00;;;;;;5162101;27;20444;-48
2021/12/08 00:19:48;;;;;;;;;;;22.90;20.00;;;;;;5161898;27;19938;-49
2021/12/08 00:22:14;;;;;;;;;;;22.90;20.00;;;;;;5166845;27;20405;-50
2021/12/08 00:24:39;;;;;;;;;;;22.90;20.00;;;;;;5161136;27;19923;-47
2021/12/08 00:27:05;;;;;;;;;;;22.90;20.00;;;;;;5164377;27;19985;-52
2021/12/08 00:29:31;;;;;;;;;;;22.90;20.10;;;;;;5165240;27;19953;-49
2021/12/08 00:31:58;;;;;;;;;;;22.90;20.00;;;;;;5162255;27;19923;-46
2021/12/08 00:34:24;;;;;;;;;;;22.90;20.20;;;;;;5167355;27;19927;-46
2021/12/08 00:36:54;;;;;;;;;;;22.90;20.40;;;;;;5161447;27;19930;-47
2021/12/08 00:39:20;;;;;;;;;;;23.00;20.50;;;;;;5161625;27;19971;-46
2021/12/08 00:41:46;;;;;;;;;;;22.90;20.70;;;;;;5166472;27;20319;-48
2021/12/08 00:44:12;;;;;;;;;;;22.90;20.90;;;;;;5162136;27;19942;-48
2021/12/08 00:46:37;;;;;;;;;;;23.00;20.90;;;;;;5161750;27;19945;-46
2021/12/08 00:49:07;;;;;;;;;;;22.90;21.10;;;;;;5167241;27;19922;-45
2021/12/08 00:51:32;;;;;;;;;;;23.00;21.10;;;;;;5161689;27;20410;-47
2021/12/08 00:53:58;;;;;;;;;;;23.00;21.10;;;;;;5148167;27;19934;-45
2021/12/08 00:56:24;;;;;;;;;;;22.90;21.30;;;;;;5161295;27;19933;-47
2021/12/08 00:58:50;;;;;;;;;;;23.00;21.30;;;;;;5161304;27;19923;-47
2021/12/08 01:01:16;;;;;;;;;;;23.00;21.50;;;;;;5166495;27;19922;-47
2021/12/08 01:03:42;;;;;;;;;;;23.00;21.70;;;;;;5161899;27;19923;-45
2021/12/08 01:06:08;;;;;;;;;;;23.00;21.80;;;;;;5142966;27;19938;-49
2021/12/08 01:08:33;;;;;;;;;;;21.60;22.90;;;;;;5167481;27;20017;-50
2021/12/08 01:11:05;;;;;;;;;;;20.60;24.10;;;;;;5161420;27;19942;-45
2021/12/08 01:13:31;;;;;;;;;;;21.90;22.50;;;;;;5161027;27;20381;-52
2021/12/08 01:15:57;;;;;;;;;;;22.30;22.20;;;;;;5163875;27;19974;-46
2021/12/08 01:18:23;;;;;;;;;;;22.40;22.10;;;;;;5160827;27;19923;-46
2021/12/08 01:20:49;;;;;;;;;;;22.60;22.20;;;;;;5166760;27;19922;-45
2021/12/08 01:23:15;;;;;;;;;;;22.60;22.40;;;;;;5161539;27;19923;-46
2021/12/08 01:25:40;;;;;;;;;;;22.60;22.50;;;;;;5161223;27;19923;-45
2021/12/08 01:28:06;;;;;;;;;;;22.60;22.60;;;;;;5166667;27;19949;-47
2021/12/08 01:30:32;;;;;;;;;;;22.70;22.70;;;;;;5160864;27;20062;-45
2021/12/08 01:32:58;;;;;;;;;;;22.70;22.80;;;;;;5161301;27;19967;-51
2021/12/08 01:35:24;;;;;;;;;;;22.80;22.90;;;;;;5165997;27;20282;-46
2021/12/08 01:37:49;;;;;;;;;;;22.70;23.10;;;;;;5164495;27;19923;-46
2021/12/08 01:40:16;;;;;;;;;;;22.70;23.10;;;;;;5170448;27;19934;-45
2021/12/08 01:42:45;;;;;;;;;;;22.80;23.20;;;;;;5164444;27;19969;-46
2021/12/08 01:47:56;;;;;;;;;;;22.80;23.50;;;;;;5169963;27;19937;-48
2021/12/08 01:50:22;;;;;;;;;;;22.80;23.50;;;;;;5164241;27;20329;-48
2021/12/08 01:52:48;;;;;;;;;;;22.80;23.60;;;;;;5164394;27;19930;-45
2021/12/08 01:55:14;;;;;;;;;;;22.80;23.60;;;;;;5169375;27;19926;-46
2021/12/08 01:57:39;;;;;;;;;;;22.80;23.80;;;;;;5164564;27;20397;-46
2021/12/08 02:00:08;;;;;;;;;;;22.80;23.90;;;;;;5164504;27;19926;-47
2021/12/08 02:02:34;;;;;;;;;;;22.80;24.00;;;;;;5169978;27;20013;-47
2021/12/08 02:05:00;;;;;;;;;;;22.90;24.00;;;;;;5164454;27;19933;-48
2021/12/08 02:07:26;;;;;;;;;;;22.90;24.10;;;;;;5169474;27;20377;-47
2021/12/08 02:09:51;;;;;;;;;;;22.90;24.10;;;;;;5164116;27;19926;-47
2021/12/08 02:12:17;;;;;;;;;;;22.90;24.20;;;;;;5163920;27;19927;-45
2021/12/08 02:14:43;;;;;;;;;;;22.90;24.20;;;;;;5149777;27;19938;-46
2021/12/08 02:17:10;;;;;;;;;;;23.00;24.20;;;;;;5164257;27;20392;-46
2021/12/08 02:19:37;;;;;;;;;;;23.00;24.20;;;;;;5164066;27;19927;-49
2021/12/08 02:22:03;;;;;;;;;;;23.00;24.20;;;;;;5169748;27;20338;-45
2021/12/08 02:24:29;;;;;;;;;;;23.00;24.30;;;;;;5164172;27;19971;-45
2021/12/08 02:26:57;;;;;;;;;;;19.80;28.40;;;;;;5169300;27;20381;-46
2021/12/08 02:29:32;;;;;;;;;;;21.30;26.50;;;;;;5163983;27;20389;-43
2021/12/08 02:32:06;;;;;;;;;;;22.20;25.50;;;;;;5163506;27;19926;-45
2021/12/08 02:48:15;;;;;;;;;;;22.80;25.00;;;;;;5161092;27;19966;-46
2021/12/08 02:50:41;;;;;;;;;;;22.80;24.90;;;;;;5162833;27;20295;-43
2021/12/08 02:53:07;;;;;;;;;;;22.90;24.90;;;;;;5164867;27;20072;-46
2021/12/08 02:55:33;;;;;;;;;;;23.00;24.90;;;;;;5163606;27;20444;-43
2021/12/08 02:58:00;;;;;;;;;;;23.00;24.90;;;;;;5167336;27;19927;-53
2021/12/08 03:00:27;;;;;;;;;;;23.00;24.80;;;;;;5166092;27;19923;-47
2021/12/08 03:02:53;;;;;;;;;;;23.00;24.90;;;;;;5163216;27;19930;-53
2021/12/08 03:05:19;;;;;;;;;;;22.80;25.30;;;;;;5168602;27;19934;-51
2021/12/08 03:07:45;;;;;;;;;;;22.70;25.40;;;;;;5163126;27;19922;-52
2021/12/08 03:10:12;;;;;;;;;;;22.60;25.70;;;;;;5162827;27;19927;-50
2021/12/08 03:12:38;;;;;;;;;;;22.70;25.70;;;;;;5168729;27;19986;-49
2021/12/08 03:15:04;;;;;;;;;;;22.60;25.70;;;;;;5163023;27;19930;-52
2021/12/08 03:17:30;;;;;;;;;;;22.70;25.70;;;;;;5163454;27;19946;-53
2021/12/08 03:19:55;;;;;;;;;;;22.70;25.80;;;;;;5168859;27;19923;-51
2021/12/08 03:22:22;;;;;;;;;;;22.70;25.80;;;;;;5162963;27;19923;-47
2021/12/08 03:24:50;;;;;;;;;;;22.60;25.90;;;;;;5168197;27;19923;-49
2021/12/08 03:27:20;;;;;;;;;;;22.70;25.70;;;;;;5162450;27;19922;-47
2021/12/08 03:29:57;;;;;;;;;;;22.70;25.80;;;;;;5162655;27;19923;-46
2021/12/08 03:32:31;;;;;;;;;;;22.70;25.80;;;;;;5168248;27;19923;-47
2021/12/08 03:34:57;;;;;;;;;;;22.70;25.90;;;;;;5162862;27;20374;-46
2021/12/08 03:37:24;;;;;;;;;;;22.70;26.00;;;;;;5162876;27;19934;-48
2021/12/08 03:39:50;;;;;;;;;;;22.70;26.00;;;;;;5167851;27;20017;-49
2021/12/08 03:42:17;;;;;;;;;;;22.70;26.00;;;;;;5162197;27;20009;-48
2021/12/08 03:44:43;;;;;;;;;;;22.80;26.00;;;;;;5162465;27;20402;-48
2021/12/08 03:47:15;;;;;;;;;;;22.70;26.10;;;;;;5167671;27;20017;-47
2021/12/08 03:49:41;;;;;;;;;;;22.80;26.00;;;;;;5162758;27;19926;-48
2021/12/08 03:52:07;;;;;;;;;;;22.70;26.10;;;;;;5167933;27;19926;-48
2021/12/08 03:54:33;;;;;;;;;;;22.80;26.10;;;;;;5162896;27;20354;-49
2021/12/08 03:56:58;;;;;;;;;;;22.80;26.20;;;;;;5162687;27;19923;-46
2021/12/08 03:59:24;;;;;;;;;;;22.80;26.20;;;;;;5166677;27;20312;-45
2021/12/08 04:01:50;;;;;;;;;;;22.80;26.10;;;;;;5162109;27;19930;-45
2021/12/08 04:04:16;;;;;;;;;;;22.80;26.10;;;;;;5161695;27;19935;-46
2021/12/08 04:06:48;;;;;;;;;;;22.80;26.20;;;;;;5167743;27;20021;-47
2021/12/08 04:09:27;;;;;;;;;;;22.80;26.20;;;;;;5158393;27;19927;-45
2021/12/08 04:11:53;;;;;;;;;;;22.80;26.20;;;;;;5162127;27;20476;-46
2021/12/08 04:14:19;;;;;;;;;;;22.80;26.20;;;;;;5167561;27;19927;-48
2021/12/08 04:16:47;;;;;;;;;;;22.80;26.20;;;;;;5162054;27;20396;-46
2021/12/08 04:19:13;;;;;;;;;;;22.90;26.30;;;;;;5167106;27;19950;-53
2021/12/08 04:21:39;;;;;;;;;;;22.80;26.30;;;;;;5162080;27;19931;-48
2021/12/08 04:24:05;;;;;;;;;;;22.90;26.20;;;;;;5161516;27;19933;-52
2021/12/08 04:26:42;;;;;;;;;;;22.90;26.30;;;;;;5167644;27;19930;-45
2021/12/08 04:29:08;;;;;;;;;;;22.80;26.40;;;;;;5161890;27;19932;-47
2021/12/08 04:31:34;;;;;;;;;;;22.90;26.40;;;;;;5162003;27;19927;-44
2021/12/08 04:34:02;;;;;;;;;;;22.90;26.50;;;;;;5167109;27;19952;-48
2021/12/08 04:36:31;;;;;;;;;;;22.90;26.50;;;;;;5161569;27;20013;-49
2021/12/08 04:38:59;;;;;;;;;;;22.90;26.50;;;;;;5161758;27;19960;-47
2021/12/08 04:41:32;;;;;;;;;;;22.90;26.60;;;;;;5166857;27;19954;-45
2021/12/08 04:44:06;;;;;;;;;;;23.00;26.60;;;;;;5161848;27;19937;-47
2021/12/08 05:02:59;;;;;;;;;;;22.80;27.30;;;;;;5161692;27;20396;-50
2021/12/08 05:08:00;;;;;;;;;;;22.80;27.40;;;;;;5161449;27;20282;-48
2021/12/08 05:10:30;;;;;;;;;;;22.80;27.50;;;;;;5143397;27;20285;-47
2021/12/08 05:12:57;;;;;;;;;;;22.80;27.50;;;;;;5150665;27;19923;-47
2021/12/08 05:15:24;;;;;;;;;;;22.90;27.50;;;;;;5164745;27;20259;-48
2021/12/08 05:18:08;;;;;;;;;;;22.90;27.50;;;;;;5164669;27;19927;-47
2021/12/08 05:20:37;;;;;;;;;;;22.90;27.50;;;;;;5170366;27;19931;-43
2021/12/08 05:23:05;;;;;;;;;;;22.90;27.60;;;;;;5165256;27;19923;-45
2021/12/08 05:25:32;;;;;;;;;;;23.00;27.60;;;;;;5164865;27;19949;-47
2021/12/08 05:27:59;;;;;;;;;;;23.10;27.40;;;;;;5170676;27;20353;-55
2021/12/08 05:30:26;;;;;;;;;;;23.10;27.40;;;;;;5164879;27;19933;-52
2021/12/08 05:32:52;;;;;;;;;;;22.90;27.60;;;;;;5148994;27;19939;-55
2021/12/08 05:35:18;;;;;;;;;;;22.90;27.60;;;;;;5167772;27;20015;-50
2021/12/08 05:37:44;;;;;;;;;;;23.00;27.60;;;;;;5164265;27;20057;-46
2021/12/08 05:40:11;;;;;;;;;;;23.00;27.60;;;;;;5170497;27;19930;-45
2021/12/08 05:42:37;;;;;;;;;;;23.00;27.60;;;;;;5164664;27;20275;-47
2021/12/08 05:45:06;;;;;;;;;;;23.10;27.50;;;;;;5146011;27;19929;-46
2021/12/08 05:47:31;;;;;;;;;;;23.10;27.50;;;;;;5170002;27;19923;-52
2021/12/08 05:49:57;;;;;;;;;;;23.10;27.50;;;;;;5164360;27;19922;-52
2021/12/08 05:52:23;;;;;;;;;;;22.90;27.90;;;;;;5164124;27;19929;-53
2021/12/08 05:54:49;;;;;;;;;;;22.80;28.00;;;;;;5169344;27;19987;-48
2021/12/08 05:57:17;;;;;;;;;;;22.80;28.00;;;;;;5163901;27;19947;-52
2021/12/08 05:59:43;;;;;;;;;;;22.80;28.10;;;;;;5169947;27;20377;-52
2021/12/08 06:02:10;;;;;;;;;;;22.80;28.10;;;;;;5164200;27;19922;-50
2021/12/08 06:04:36;;;;;;;;;;;22.80;28.10;;;;;;5164586;27;19926;-49
2021/12/08 06:07:03;;;;;;;;;;;22.80;28.10;;;;;;5169538;27;20363;-50
2021/12/08 06:09:29;;;;;;;;;;;22.80;28.10;;;;;;5164140;27;19945;-52
2021/12/08 06:11:54;;;;;;;;;;;22.80;28.20;;;;;;5163789;27;20089;-50
2021/12/08 06:14:21;;;;;;;;;;;22.90;28.10;;;;;;5168873;27;19931;-49
2021/12/08 06:16:47;;;;;;;;;;;22.80;28.10;;;;;;5164150;27;20197;-50
2021/12/08 06:19:13;;;;;;;;;;;22.80;28.20;;;;;;5169321;27;19927;-52
2021/12/08 06:21:39;;;;;;;;;;;22.80;28.20;;;;;;5163955;27;19927;-49
2021/12/08 06:24:06;;;;;;;;;;;22.90;28.10;;;;;;5164210;27;19922;-47
2021/12/08 06:26:31;;;;;;;;;;;22.90;28.20;;;;;;5169444;27;20471;-50
2021/12/08 06:28:57;;;;;;;;;;;22.90;28.20;;;;;;5163841;27;19927;-48
2021/12/08 06:31:24;;;;;;;;;;;22.90;28.20;;;;;;5163690;27;20017;-49
2021/12/08 06:33:50;;;;;;;;;;;22.90;28.20;;;;;;5168786;27;19923;-47
2021/12/08 06:36:21;;;;;;;;;;;22.90;28.30;;;;;;5164003;27;19933;-47
2021/12/08 06:38:47;;;;;;;;;;;22.80;28.40;;;;;;5163820;27;20017;-53
2021/12/08 06:41:15;;;;;;;;;;;22.90;28.40;;;;;;5169411;27;20416;-47
2021/12/08 06:43:42;;;;;;;;;;;23.00;28.40;;;;;;5163629;27;20009;-48
2021/12/08 06:46:07;;;;;;;;;;;23.00;28.40;;;;;;5168712;27;20374;-48
2021/12/08 06:48:38;;;;;;;;;;;22.90;28.50;;;;;;5163211;27;19930;-49
2021/12/08 06:51:21;;;;;;;;;;;22.90;28.60;;;;;;5163070;27;19927;-45
2021/12/08 06:53:48;;;;;;;;;;;23.00;28.50;;;;;;5169080;27;20497;-49
2021/12/08 06:56:31;;;;;;;;;;;23.10;28.30;;;;;;5163586;27;19927;-46
2021/12/08 06:58:58;;;;;;;;;;;23.00;28.40;;;;;;5163745;27;19926;-47
2021/12/08 07:01:48;;;;;;;;;;;23.10;28.40;;;;;;5168982;27;19957;-50
2021/12/08 07:07:01;;;;;;;;;;;22.90;28.70;;;;;;5163313;27;19929;-48
2021/12/08 07:09:32;;;;;;;;;;;22.90;28.60;;;;;;5168269;27;20413;-51
2021/12/08 07:11:59;;;;;;;;;;;22.90;28.70;;;;;;5163844;27;19927;-49
2021/12/08 07:14:25;;;;;;;;;;;23.00;28.50;;;;;;5143602;27;20026;-50
2021/12/08 07:16:52;;;;;;;;;;;23.00;28.50;;;;;;5168686;27;20021;-49
2021/12/08 07:19:32;;;;;;;;;;;23.00;28.50;;;;;;5163528;27;19923;-47
2021/12/08 07:21:58;;;;;;;;;;;22.90;28.60;;;;;;5161467;27;20041;-47
2021/12/08 07:24:27;;;;;;;;;;;23.10;28.40;;;;;;5168079;27;19930;-47
2021/12/08 07:26:54;;;;;;;;;;;23.00;28.50;;;;;;5162835;27;19934;-47
2021/12/08 07:29:21;;;;;;;;;;;23.10;28.30;;;;;;5162367;27;19922;-49
2021/12/08 07:31:49;;;;;;;;;;;23.20;28.30;;;;;;5168497;27;19922;-56
2021/12/08 07:34:18;;;;;;;;;;;23.20;28.20;;;;;;5161616;27;20410;-49
2021/12/08 07:36:45;;;;;;;;;;;23.00;28.50;;;;;;5146742;27;19937;-54
2021/12/08 07:39:14;;;;;;;;;;;23.00;28.50;;;;;;5166322;27;19929;-50
2021/12/08 07:41:40;;;;;;;;;;;23.00;28.50;;;;;;5162454;27;20049;-50
2021/12/08 07:44:07;;;;;;;;;;;22.90;28.50;;;;;;5167865;27;19930;-50
2021/12/08 07:46:35;;;;;;;;;;;22.90;28.50;;;;;;5162144;27;20066;-49
2021/12/08 07:49:08;;;;;;;;;;;23.00;28.50;;;;;;5144024;27;19929;-49
2021/12/08 07:51:36;;;;;;;;;;;23.00;28.50;;;;;;5168490;27;19922;-49
2021/12/08 07:54:02;;;;;;;;;;;23.00;28.40;;;;;;5162695;27;20422;-48
2021/12/08 07:56:28;;;;;;;;;;;23.00;28.40;;;;;;5162663;27;20426;-48
2021/12/08 07:58:55;;;;;;;;;;;23.10;28.40;;;;;;5167746;27;19929;-51
2021/12/08 08:01:24;;;;;;;;;;;23.10;28.30;;;;;;5162275;27;20360;-52
2021/12/08 08:03:50;;;;;;;;;;;23.00;28.40;;;;;;5146411;27;19990;-55
2021/12/08 08:06:21;;;;;;;;;;;23.00;28.50;;;;;;5146510;27;20045;-54
2021/12/08 08:08:47;;;;;;;;;;;23.10;28.50;;;;;;5162806;27;19945;-49
2021/12/08 08:11:17;;;;;;;;;;;23.00;28.50;;;;;;5167635;27;19926;-46
2021/12/08 08:13:43;;;;;;;;;;;23.00;28.50;;;;;;5143904;27;19926;-48
2021/12/08 08:16:13;;;;;;;;;;;23.10;28.40;;;;;;5162226;27;20026;-47
2021/12/08 08:18:40;;;;;;;;;;;23.10;28.40;;;;;;5167502;27;19923;-54
2021/12/08 08:21:08;;;;;;;;;;;23.10;28.40;;;;;;5161933;27;19922;-50
2021/12/08 08:23:34;;;;;;;;;;;23.00;28.60;;;;;;5161541;27;20090;-50
2021/12/08 08:26:00;;;;;;;;;;;23.00;28.50;;;;;;5167653;27;19923;-48
2021/12/08 08:28:26;;;;;;;;;;;23.00;28.30;;;;;;5162350;27;19970;-49
2021/12/08 08:30:56;;;;;;;;;;;23.10;28.20;;;;;;5166176;27;20377;-53
2021/12/08 08:33:23;;;;;;;;;;;23.00;28.30;;;;;;5165528;27;20011;-51
2021/12/08 08:35:49;;;;;;;;;;;23.00;28.30;;;;;;5161401;27;19922;-49
2021/12/08 08:38:17;;;;;;;;;;;23.00;28.30;;;;;;5166978;27;19923;-52
2021/12/08 08:40:53;;;;;;;;;;;23.10;28.20;;;;;;5161596;27;19922;-49
2021/12/08 08:43:19;;;;;;;;;;;23.10;28.20;;;;;;5161492;27;19923;-51
2021/12/08 08:45:52;;;;;;;;;;;23.10;28.20;;;;;;5166942;27;19923;-52
2021/12/08 08:48:19;;;;;;;;;;;23.00;28.30;;;;;;5161521;27;19931;-49
2021/12/08 08:50:49;;;;;;;;;;;22.90;28.60;;;;;;5161790;27;19923;-51
2021/12/08 08:53:15;;;;;;;;;;;22.90;28.50;;;;;;5167113;27;19949;-51
2021/12/08 08:55:50;;;;;;;;;;;22.90;28.50;;;;;;5160617;27;21156;-50
2021/12/08 08:58:17;;;;;;;;;;;23.00;28.50;;;;;;5142768;27;20595;-48
2021/12/08 09:00:54;;;;;;;;;;;23.00;28.40;;;;;;5166470;27;19923;-49
2021/12/08 09:03:21;;;;;;;;;;;23.00;28.40;;;;;;5161887;27;20355;-47
2021/12/08 09:05:52;;;;;;;;;;;23.10;28.20;;;;;;5163784;27;19927;-54
2021/12/08 09:08:18;;;;;;;;;;;23.20;28.20;;;;;;5166769;27;20347;-50
2021/12/08 09:10:50;;;;;;;;;;;23.20;28.20;;;;;;5161547;27;19923;-57
2021/12/08 09:13:17;;;;;;;;;;;23.10;28.10;;;;;;5166570;27;19923;-52
2021/12/08 09:15:44;;;;;;;;;;;22.90;28.40;;;;;;5161056;27;19931;-51
2021/12/08 09:18:10;;;;;;;;;;;23.00;28.40;;;;;;5161001;27;20379;-54
2021/12/08 09:20:41;;;;;;;;;;;23.00;28.40;;;;;;5166363;27;19933;-48
2021/12/08 09:23:15;;;;;;;;;;;23.00;28.40;;;;;;5161381;27;19969;-49
2021/12/08 09:25:48;;;;;;;;;;;23.10;28.30;;;;;;5161174;27;19930;-48
2021/12/08 09:28:16;;;;;;;;;;;23.00;28.40;;;;;;5166985;27;19930;-50
2021/12/08 09:30:46;;;;;;;;;;;23.10;28.30;;;;;;5161067;27;19923;-50
2021/12/08 09:33:16;;;;;;;;;;;23.00;28.40;;;;;;5160756;27;19923;-47
2021/12/08 09:35:52;;;;;;;;;;;23.10;28.30;;;;;;5166197;27;19929;-48
2021/12/08 09:38:20;;;;;;;;;;;23.20;28.20;;;;;;5160432;27;20429;-50
2021/12/08 09:40:53;;;;;;;;;;;23.10;28.30;;;;;;5161387;27;20090;-48
2021/12/08 09:43:21;;;;;;;;;;;23.10;28.30;;;;;;5166241;27;20506;-50
2021/12/08 09:45:48;;;;;;;;;;;23.10;28.20;;;;;;5160972;27;20411;-49
2021/12/08 09:48:14;;;;;;;;;;;23.10;28.20;;;;;;5166093;27;19931;-50
2021/12/08 09:50:40;;;;;;;;;;;23.20;28.20;;;;;;5142433;27;20327;-50
2021/12/08 09:53:06;;;;;;;;;;;23.20;28.10;;;;;;5160799;27;19922;-57
2021/12/08 09:55:32;;;;;;;;;;;23.10;28.20;;;;;;5165470;27;19932;-53
2021/12/08 09:57:58;;;;;;;;;;;22.90;28.50;;;;;;5162859;27;19970;-50
2021/12/08 10:00:25;;;;;;;;;;;23.00;28.40;;;;;;5164518;27;20017;-51
2021/12/08 10:02:57;;;;;;;;;;;22.90;28.40;;;;;;5169922;27;19923;-50
2021/12/08 10:05:25;;;;;;;;;;;23.00;28.30;;;;;;5164497;27;20338;-50
2021/12/08 10:07:51;;;;;;;;;;;23.00;28.20;;;;;;5164011;27;20348;-48
2021/12/08 10:10:16;;;;;;;;;;;23.10;28.20;;;;;;5169340;27;19922;-48
2021/12/08 10:12:42;;;;;;;;;;;23.10;28.10;;;;;;5164006;27;19950;-48
2021/12/08 10:15:09;;;;;;;;;;;23.10;28.10;;;;;;5168762;27;20011;-53
2021/12/08 10:17:35;;;;;;;;;;;23.00;28.20;;;;;;5164269;27;19938;-51
2021/12/08 10:20:18;;;;;;;;;;;22.90;28.30;;;;;;5164066;27;19922;-52
2021/12/08 10:22:44;;;;;;;;;;;22.90;28.30;;;;;;5169628;27;19936;-51
2021/12/08 10:25:13;;;;;;;;;;;23.00;28.30;;;;;;5163929;27;19926;-51
2021/12/08 10:27:58;;;;;;;;;;;23.00;28.20;;;;;;5163664;27;20021;-51
2021/12/08 10:30:23;;;;;;;;;;;23.00;28.30;;;;;;5169143;27;20022;-51
2021/12/08 10:32:50;;;;;;;;;;;23.00;28.30;;;;;;5163038;27;19934;-49
2021/12/08 10:35:39;;;;;;;;;;;23.10;28.30;;;;;;5163717;27;20025;-46
2021/12/08 10:38:05;;;;;;;;;;;23.10;28.20;;;;;;5169299;27;19933;-46
2021/12/08 10:40:31;;;;;;;;;;;23.10;28.20;;;;;;5163793;27;19930;-45
2021/12/08 10:42:56;;;;;;;;;;;23.20;28.20;;;;;;5163661;27;19923;-54
2021/12/08 10:45:26;;;;;;;;;;;23.00;28.30;;;;;;5169102;27;19940;-50
2021/12/08 10:47:55;;;;;;;;;;;23.00;28.40;;;;;;5163300;27;20003;-49
2021/12/08 10:55:52;;;;;;;;;;;23.10;28.30;;;;;;5163761;27;20600;-47
2021/12/08 10:58:25;;;;;;;;;;;23.00;28.40;;;;;;5163401;27;19927;-45
2021/12/08 11:00:51;;;;;;;;;;;23.10;28.30;;;;;;5168967;27;19923;-51
2021/12/08 11:03:17;;;;;;;;;;;23.10;28.40;;;;;;5163053;27;19923;-49
2021/12/08 11:05:44;;;;;;;;;;;23.00;28.50;;;;;;5148099;27;20021;-56
2021/12/08 11:08:18;;;;;;;;;;;23.00;28.50;;;;;;5165216;27;19971;-52
2021/12/08 11:10:47;;;;;;;;;;;23.10;28.40;;;;;;5162691;27;19927;-50
2021/12/08 11:13:13;;;;;;;;;;;23.00;28.40;;;;;;5169023;27;19926;-48
2021/12/08 11:15:39;;;;;;;;;;;23.10;28.40;;;;;;5162970;27;19940;-48
2021/12/08 11:18:29;;;;;;;;;;;23.10;28.40;;;;;;5163092;27;19933;-55
2021/12/08 11:21:00;;;;;;;;;;;23.20;28.40;;;;;;5168308;27;19929;-52
2021/12/08 11:23:46;;;;;;;;;;;23.00;28.70;;;;;;5162884;27;19926;-53
2021/12/08 11:26:13;;;;;;;;;;;23.10;28.70;;;;;;5159034;27;19922;-49
2021/12/08 11:28:40;;;;;;;;;;;23.00;28.70;;;;;;5167474;27;20020;-46
2021/12/08 11:31:09;;;;;;;;;;;23.10;28.70;;;;;;5162917;27;19926;-48
2021/12/08 11:33:38;;;;;;;;;;;23.10;28.70;;;;;;5162980;27;20141;-56
2021/12/08 11:36:07;;;;;;;;;;;22.80;29.00;;;;;;5168244;27;19923;-51
2021/12/08 11:38:33;;;;;;;;;;;22.80;28.90;;;;;;5162828;27;19923;-51
2021/12/08 11:40:59;;;;;;;;;;;22.90;29.00;;;;;;5162425;27;20335;-51
2021/12/08 11:43:29;;;;;;;;;;;22.90;28.90;;;;;;5167777;27;19929;-50
2021/12/08 11:46:09;;;;;;;;;;;23.00;28.90;;;;;;5162245;27;19927;-49
2021/12/08 11:48:35;;;;;;;;;;;22.90;28.90;;;;;;5162187;27;20382;-51
2021/12/08 11:51:11;;;;;;;;;;;22.90;28.90;;;;;;5168453;27;19927;-51
2021/12/08 11:53:37;;;;;;;;;;;23.00;28.80;;;;;;5143807;27;19970;-51
2021/12/08 11:56:03;;;;;;;;;;;23.00;28.90;;;;;;5166170;27;19923;-56
2021/12/08 11:58:29;;;;;;;;;;;23.00;28.90;;;;;;5164840;27;19926;-49
2021/12/08 12:00:55;;;;;;;;;;;23.00;28.80;;;;;;5143259;27;20018;-51
2021/12/08 12:03:20;;;;;;;;;;;23.00;28.80;;;;;;5149093;27;19923;-51
2021/12/08 12:05:47;;;;;;;;;;;23.10;28.70;;;;;;5143081;27;19934;-52
2021/12/08 12:08:14;;;;;;;;;;;23.10;28.70;;;;;;5162552;27;19933;-52
2021/12/08 12:10:40;;;;;;;;;;;23.20;28.70;;;;;;5167820;27;19930;-53
2021/12/08 12:13:08;;;;;;;;;;;23.10;28.90;;;;;;5162457;27;19934;-52
2021/12/08 12:15:34;;;;;;;;;;;23.00;29.00;;;;;;5162333;27;19935;-48
2021/12/08 12:18:00;;;;;;;;;;;23.10;28.90;;;;;;5167226;27;20273;-53
2021/12/08 12:20:42;;;;;;;;;;;23.00;29.00;;;;;;5142393;27;19931;-52
2021/12/08 12:23:15;;;;;;;;;;;23.00;29.20;;;;;;5147024;27;19923;-56
2021/12/08 12:25:56;;;;;;;;;;;23.00;29.10;;;;;;5166992;27;20422;-49
2021/12/08 12:28:41;;;;;;;;;;;23.10;28.90;;;;;;5162084;27;20378;-52
2021/12/08 12:31:26;;;;;;;;;;;23.00;28.80;;;;;;5161883;27;19947;-51
2021/12/08 12:33:52;;;;;;;;;;;23.00;28.80;;;;;;5167614;27;19922;-47
2021/12/08 12:36:19;;;;;;;;;;;23.00;28.80;;;;;;5161792;27;19922;-48
2021/12/08 12:38:44;;;;;;;;;;;23.20;28.70;;;;;;5162323;27;20813;-57
2021/12/08 12:41:21;;;;;;;;;;;23.00;28.70;;;;;;5166738;27;19929;-55
2021/12/08 12:43:49;;;;;;;;;;;23.00;28.80;;;;;;5161376;27;19927;-49
2021/12/08 12:46:16;;;;;;;;;;;23.00;28.80;;;;;;5149338;27;20369;-51
2021/12/08 12:48:43;;;;;;;;;;;23.00;28.70;;;;;;5161539;27;20381;-49
2021/12/08 12:51:13;;;;;;;;;;;23.10;28.60;;;;;;5161929;27;20236;-61
2021/12/08 12:53:45;;;;;;;;;;;23.00;28.60;;;;;;5166856;27;19962;-53
2021/12/08 12:56:12;;;;;;;;;;;22.80;28.80;;;;;;5161117;27;19923;-52
2021/12/08 12:58:50;;;;;;;;;;;22.90;28.70;;;;;;5161229;27;20441;-51
2021/12/08 13:01:30;;;;;;;;;;;22.90;28.70;;;;;;5166281;27;19923;-49
2021/12/08 13:04:04;;;;;;;;;;;23.00;28.60;;;;;;5161860;27;20017;-50
2021/12/08 13:06:49;;;;;;;;;;;23.10;28.50;;;;;;5142693;27;19949;-50
2021/12/08 13:09:35;;;;;;;;;;;23.10;28.40;;;;;;5167070;27;19922;-61
2021/12/08 13:12:21;;;;;;;;;;;23.10;28.40;;;;;;5163156;27;19973;-53
2021/12/08 13:14:48;;;;;;;;;;;22.80;28.70;;;;;;5160404;27;19937;-52
2021/12/08 13:17:16;;;;;;;;;;;22.90;28.70;;;;;;5166460;27;20443;-50
2021/12/08 13:19:43;;;;;;;;;;;22.90;28.80;;;;;;5161051;27;20318;-51
2021/12/08 13:22:08;;;;;;;;;;;22.90;28.90;;;;;;5142533;27;19943;-52
2021/12/08 13:24:35;;;;;;;;;;;23.10;28.70;;;;;;5166715;27;19923;-52
2021/12/08 13:27:06;;;;;;;;;;;23.00;28.70;;;;;;5161282;27;20022;-51
2021/12/08 13:29:34;;;;;;;;;;;23.00;28.70;;;;;;5161188;27;19961;-49
2021/12/08 13:32:09;;;;;;;;;;;23.10;28.60;;;;;;5168938;27;20300;-52
2021/12/08 13:34:35;;;;;;;;;;;23.00;28.60;;;;;;5145775;27;19923;-49
2021/12/08 13:37:20;;;;;;;;;;;23.10;28.60;;;;;;5164396;27;20252;-58
2021/12/08 13:39:47;;;;;;;;;;;23.10;28.60;;;;;;5170013;27;19929;-52
2021/12/08 13:42:14;;;;;;;;;;;22.90;28.80;;;;;;5164910;27;19929;-50
2021/12/08 13:44:41;;;;;;;;;;;22.90;28.80;;;;;;5164601;27;19974;-48
2021/12/08 13:47:30;;;;;;;;;;;23.00;28.80;;;;;;5170253;27;20017;-49
2021/12/08 13:49:57;;;;;;;;;;;23.00;28.80;;;;;;5147752;27;20353;-50
2021/12/08 13:52:30;;;;;;;;;;;23.10;28.80;;;;;;5164184;27;20035;-48
2021/12/08 13:54:56;;;;;;;;;;;22.90;29.00;;;;;;5169382;27;19970;-52
2021/12/08 13:57:26;;;;;;;;;;;22.90;29.20;;;;;;5164142;27;19933;-53
2021/12/08 13:59:53;;;;;;;;;;;23.00;29.10;;;;;;5169321;27;19927;-57
2021/12/08 14:02:22;;;;;;;;;;;23.00;29.10;;;;;;5165831;27;20423;-50
2021/12/08 14:04:48;;;;;;;;;;;23.10;29.20;;;;;;5164391;27;19927;-48
2021/12/08 14:07:17;;;;;;;;;;;23.00;29.20;;;;;;5169776;27;20362;-46
2021/12/08 14:09:43;;;;;;;;;;;23.10;29.10;;;;;;5164012;27;19927;-48
2021/12/08 14:12:09;;;;;;;;;;;23.10;29.10;;;;;;5164101;27;19936;-55
2021/12/08 14:14:34;;;;;;;;;;;23.00;29.30;;;;;;5169075;27;19930;-52
2021/12/08 14:17:00;;;;;;;;;;;23.00;29.50;;;;;;5164291;27;20384;-51
2021/12/08 14:19:36;;;;;;;;;;;23.00;29.30;;;;;;5145788;27;19926;-51
2021/12/08 14:22:02;;;;;;;;;;;23.00;29.40;;;;;;5169717;27;19929;-49
2021/12/08 14:24:28;;;;;;;;;;;23.00;29.40;;;;;;5164194;27;19927;-50
2021/12/08 14:26:53;;;;;;;;;;;23.00;29.30;;;;;;5169120;27;19930;-50
2021/12/08 14:29:22;;;;;;;;;;;23.10;29.30;;;;;;5163428;27;19922;-49
2021/12/08 14:31:49;;;;;;;;;;;23.10;29.30;;;;;;5163605;27;19929;-51
2021/12/08 14:34:15;;;;;;;;;;;23.10;29.40;;;;;;5168824;27;19969;-53
2021/12/08 14:36:52;;;;;;;;;;;23.00;29.40;;;;;;5164175;27;19943;-51
2021/12/08 14:39:30;;;;;;;;;;;23.00;29.40;;;;;;5163807;27;20344;-50
2021/12/08 14:41:56;;;;;;;;;;;23.10;29.40;;;;;;5169315;27;19926;-49
2021/12/08 14:44:23;;;;;;;;;;;23.00;29.30;;;;;;5162748;27;19923;-53
2021/12/08 14:46:50;;;;;;;;;;;23.10;29.30;;;;;;5163490;27;19926;-54
2021/12/08 14:49:18;;;;;;;;;;;22.90;29.60;;;;;;5168671;27;19930;-54
2021/12/08 14:51:44;;;;;;;;;;;22.90;29.70;;;;;;5162789;27;19927;-50
2021/12/08 14:54:23;;;;;;;;;;;22.90;29.70;;;;;;5165901;27;19922;-56
2021/12/08 14:57:02;;;;;;;;;;;22.90;29.80;;;;;;5169089;27;20266;-52
2021/12/08 14:59:27;;;;;;;;;;;22.90;29.80;;;;;;5163481;27;19938;-49
2021/12/08 15:01:53;;;;;;;;;;;23.00;29.70;;;;;;5165761;27;19927;-55
2021/12/08 15:04:19;;;;;;;;;;;22.90;29.90;;;;;;5166230;27;20285;-52
2021/12/08 15:06:55;;;;;;;;;;;23.00;29.90;;;;;;5162812;27;19946;-52
2021/12/08 15:09:20;;;;;;;;;;;23.00;30.00;;;;;;5168448;27;19957;-48
2021/12/08 15:11:46;;;;;;;;;;;23.00;29.90;;;;;;5162781;27;19955;-48